Time;durP1;ratioP1;P1;durP2;ratioP2;P2;SDS_P1;SDS_P2;PMS_P1;PMS_P2;Temp;Humidity;BMP_temperature;BMP_pressure;BME280_temperature;BME280_humidity;BME280_pressure;Samples;Min_cycle;Max_cycle;Signal;HPM_P1;HPM_P2
2022/10/29 00:01:00;;;;;;;9.55;3.70;;;;;;;12.74;79.49;93669.28;4860214;29;20044;-76
2022/10/29 00:03:26;;;;;;;12.50;3.70;;;;;;;12.74;79.46;93671.91;4859889;29;20049;-76
2022/10/29 00:06:11;;;;;;;10.98;3.40;;;;;;;12.75;79.06;93680.59;4860276;29;20056;-76
2022/10/29 00:08:38;;;;;;;11.48;2.88;;;;;;;12.75;79.25;93685.84;4858648;29;20564;-76
2022/10/29 00:11:21;;;;;;;9.48;2.63;;;;;;;12.77;79.29;93673.25;4859397;29;20496;-76
2022/10/29 00:13:53;;;;;;;9.23;3.58;;;;;;;12.72;79.88;93668.78;4842572;29;20501;-75
2022/10/29 00:16:21;;;;;;;9.18;2.75;;;;;;;12.70;79.92;93663.81;4841528;29;20569;-76
2022/10/29 00:18:47;;;;;;;7.13;2.45;;;;;;;12.70;80.16;93669.06;4844667;29;20038;-76
2022/10/29 00:21:15;;;;;;;6.53;2.63;;;;;;;12.68;80.67;93675.66;4848991;29;20050;-75
2022/10/29 00:23:41;;;;;;;8.82;2.95;;;;;;;12.67;81.08;93664.31;4846039;29;20070;-75
2022/10/29 00:26:07;;;;;;;11.07;2.88;;;;;;;12.66;81.83;93662.75;4856923;29;20069;-76
2022/10/29 00:28:33;;;;;;;4.80;2.10;;;;;;;12.66;82.07;93654.88;4841235;29;20508;-76
2022/10/29 00:31:07;;;;;;;7.65;2.70;;;;;;;12.65;82.40;93655.97;4842784;29;20461;-75
2022/10/29 00:33:33;;;;;;;11.48;2.97;;;;;;;12.66;82.82;93656.72;4859385;29;20529;-76
2022/10/29 00:36:01;;;;;;;8.63;2.92;;;;;;;12.65;82.76;93660.41;4859832;29;20128;-76
2022/10/29 00:38:27;;;;;;;9.43;2.70;;;;;;;12.66;83.42;93657.50;4860863;29;20624;-76
2022/10/29 00:40:54;;;;;;;8.93;2.60;;;;;;;12.64;83.57;93654.38;4859388;29;20128;-75
2022/10/29 00:43:22;;;;;;;9.13;2.90;;;;;;;12.62;83.51;93651.22;4858784;29;20037;-76
2022/10/29 00:45:58;;;;;;;10.60;3.17;;;;;;;12.63;84.05;93650.19;4858268;29;20041;-76
2022/10/29 00:48:26;;;;;;;10.35;2.90;;;;;;;12.64;84.42;93651.75;4860711;29;20579;-76
2022/10/29 00:50:53;;;;;;;7.03;2.47;;;;;;;12.64;85.18;93649.13;4859092;29;20707;-75
2022/10/29 00:53:23;;;;;;;9.63;3.08;;;;;;;12.64;85.09;93649.13;4859189;29;20385;-76
2022/10/29 00:55:49;;;;;;;12.05;2.70;;;;;;;12.65;85.30;93649.91;4860115;29;20056;-76
2022/10/29 00:58:15;;;;;;;10.15;2.97;;;;;;;12.64;85.37;93654.38;4860457;29;20026;-75
2022/10/29 01:00:42;;;;;;;8.00;2.42;;;;;;;12.65;85.37;93650.69;4859297;29;20125;-76
2022/10/29 01:03:08;;;;;;;7.32;2.45;;;;;;;12.64;85.11;93648.34;4860375;29;20094;-75
2022/10/29 01:05:34;;;;;;;9.73;2.35;;;;;;;12.61;85.16;93649.66;4857218;29;20084;-76
2022/10/29 01:08:00;;;;;;;9.60;2.40;;;;;;;12.62;84.46;93653.06;4858461;29;20049;-76
2022/10/29 01:10:39;;;;;;;6.85;2.50;;;;;;;12.60;84.28;93648.06;4860280;29;20112;-75
2022/10/29 01:13:04;;;;;;;4.75;2.30;;;;;;;12.61;84.01;93649.66;4859237;29;20052;-76
2022/10/29 01:15:51;;;;;;;5.25;2.40;;;;;;;12.62;83.78;93645.97;4855048;29;20081;-76
2022/10/29 01:18:17;;;;;;;7.28;2.33;;;;;;;12.60;84.04;93642.81;4840519;29;20034;-76
2022/10/29 01:20:48;;;;;;;5.55;2.30;;;;;;;12.58;83.76;93639.69;4856176;29;20120;-76
2022/10/29 01:23:51;;;;;;;6.47;2.28;;;;;;;12.56;83.55;93641.78;4860128;29;20125;-76
2022/10/29 01:26:31;;;;;;;10.52;3.05;;;;;;;12.54;83.88;93643.13;4852175;29;20067;-75
2022/10/29 01:29:34;;;;;;;9.82;2.33;;;;;;;12.52;83.79;93630.28;4840241;29;20501;-76
2022/10/29 01:32:14;;;;;;;5.80;2.10;;;;;;;12.50;83.88;93621.88;4840386;29;20038;-76
2022/10/29 01:34:42;;;;;;;8.52;2.20;;;;;;;12.50;83.66;93621.88;4840765;29;20034;-76
2022/10/29 01:37:23;;;;;;;9.27;2.50;;;;;;;12.50;83.60;93619.25;4843411;29;20639;-76
2022/10/29 01:39:56;;;;;;;5.93;2.38;;;;;;;12.52;83.68;93613.69;4853219;29;20041;-75
2022/10/29 01:42:30;;;;;;;7.55;2.55;;;;;;;12.54;83.47;93606.34;4859736;29;20445;-76
2022/10/29 01:45:01;;;;;;;7.45;2.45;;;;;;;12.56;83.14;93607.63;4859417;29;20053;-76
2022/10/29 01:47:33;;;;;;;9.20;2.40;;;;;;;12.56;82.97;93609.50;4858230;29;20037;-76
2022/10/29 01:50:04;;;;;;;9.32;2.55;;;;;;;12.54;83.08;93596.66;4858407;29;20073;-76
2022/10/29 01:52:33;;;;;;;6.85;2.38;;;;;;;12.54;82.94;93601.09;4842848;29;20294;-76
2022/10/29 01:54:58;;;;;;;9.95;2.05;;;;;;;12.52;83.01;93598.75;4852231;29;20033;-76
2022/10/29 01:57:35;;;;;;;9.23;2.45;;;;;;;12.53;82.91;93602.94;4858079;29;20045;-76
2022/10/29 02:00:09;;;;;;;11.57;2.30;;;;;;;12.51;82.28;93591.91;4859445;29;20097;-76
2022/10/29 02:02:53;;;;;;;6.43;2.28;;;;;;;12.50;81.94;93591.13;4859727;29;20080;-76
2022/10/29 02:06:19;;;;;;;6.05;2.67;;;;;;;12.50;82.06;93590.34;4857553;29;20116;-76
2022/10/29 02:09:13;;;;;;;11.43;2.38;;;;;;;12.47;82.58;93588.25;4789806;29;20039;-76
2022/10/29 02:11:46;;;;;;;7.47;2.20;;;;;;;12.45;82.51;93595.63;4853882;29;20053;-76
2022/10/29 02:14:20;;;;;;;7.07;2.20;;;;;;;12.42;82.27;93593.53;4839630;29;20033;-76
2022/10/29 02:16:47;;;;;;;10.43;2.30;;;;;;;12.42;82.12;93594.31;4857292;29;20041;-76
2022/10/29 02:19:12;;;;;;;5.85;2.30;;;;;;;12.40;82.13;93585.16;4847434;29;20042;-76
2022/10/29 02:21:39;;;;;;;9.52;2.50;;;;;;;12.38;82.13;93587.25;4840672;29;20046;-76
2022/10/29 02:24:05;;;;;;;4.82;2.30;;;;;;;12.37;82.34;93588.31;4840764;29;20400;-76
2022/10/29 02:26:31;;;;;;;6.88;2.40;;;;;;;12.37;82.24;93588.31;4840703;29;20038;-76
2022/10/29 02:28:57;;;;;;;13.57;2.60;;;;;;;12.37;82.21;93586.47;4851128;29;20385;-76
2022/10/29 02:31:23;;;;;;;7.00;2.80;;;;;;;12.38;82.46;93582.00;4858083;29;20076;-76
2022/10/29 02:33:49;;;;;;;7.30;2.50;;;;;;;12.39;82.51;93580.97;4873183;29;20557;-76
2022/10/29 02:36:14;;;;;;;6.30;2.63;;;;;;;12.41;82.69;93582.25;4858957;29;20072;-76
2022/10/29 02:38:40;;;;;;;8.15;2.03;;;;;;;12.41;82.72;93579.63;4856849;29;20050;-76
2022/10/29 02:41:06;;;;;;;5.22;2.13;;;;;;;12.38;83.22;93576.75;4856321;29;20178;-76
2022/10/29 02:43:31;;;;;;;7.50;2.28;;;;;;;12.35;83.40;93579.94;4856095;29;20119;-76
2022/10/29 02:46:20;;;;;;;7.28;2.60;;;;;;;12.32;83.08;93569.97;4856748;29;20520;-76
2022/10/29 02:48:46;;;;;;;5.30;2.28;;;;;;;12.29;83.08;93568.66;4872939;29;20033;-76
2022/10/29 02:51:12;;;;;;;7.13;2.47;;;;;;;12.28;82.68;93567.88;4856005;29;20108;-76
2022/10/29 02:53:38;;;;;;;8.10;2.35;;;;;;;12.28;82.50;93561.84;4857986;29;20124;-76
2022/10/29 02:56:05;;;;;;;8.90;2.20;;;;;;;12.31;81.69;93563.13;4858809;29;20473;-76
2022/10/29 02:58:31;;;;;;;12.00;2.83;;;;;;;12.34;81.27;93554.72;4857653;29;20041;-76
2022/10/29 03:00:56;;;;;;;8.00;2.25;;;;;;;12.37;81.18;93556.81;4850743;29;20046;-76
2022/10/29 03:03:22;;;;;;;8.68;2.60;;;;;;;12.36;81.19;93547.34;4858518;29;20089;-76
2022/10/29 03:05:47;;;;;;;9.32;2.42;;;;;;;12.37;81.28;93556.81;4856731;29;20037;-75
2022/10/29 03:08:13;;;;;;;7.55;2.45;;;;;;;12.35;81.51;93551.81;4858591;29;20408;-76
2022/10/29 03:10:38;;;;;;;10.70;2.47;;;;;;;12.36;81.96;93557.84;4855774;29;20197;-76
2022/10/29 03:13:04;;;;;;;7.85;2.42;;;;;;;12.37;81.79;93554.19;4841459;29;20033;-76
2022/10/29 03:15:30;;;;;;;6.10;2.30;;;;;;;12.37;81.87;93556.81;4857256;29;20121;-76
2022/10/29 03:17:55;;;;;;;8.13;2.45;;;;;;;12.37;82.29;93554.19;4857335;29;20432;-76
2022/10/29 03:20:21;;;;;;;8.57;2.28;;;;;;;12.37;82.15;93554.19;4856878;29;20040;-76
2022/10/29 03:22:46;;;;;;;12.57;2.50;;;;;;;12.38;81.86;93550.50;4856756;29;20041;-76
2022/10/29 03:25:12;;;;;;;7.78;2.35;;;;;;;12.38;82.09;93553.91;4858091;29;20041;-75
2022/10/29 03:27:44;;;;;;;13.15;3.05;;;;;;;12.41;82.16;93560.47;4858368;29;20481;-75
2022/10/29 03:30:15;;;;;;;7.93;2.28;;;;;;;12.39;82.11;93555.47;4870105;29;20046;-75
2022/10/29 03:32:42;;;;;;;6.53;2.28;;;;;;;12.41;82.06;93565.72;4844744;29;20117;-76
2022/10/29 03:35:09;;;;;;;8.80;2.42;;;;;;;12.39;82.11;93558.09;4838522;29;20552;-76
2022/10/29 03:37:35;;;;;;;7.63;2.42;;;;;;;12.39;81.93;93559.97;4849266;29;20080;-75
2022/10/29 03:40:01;;;;;;;11.98;3.05;;;;;;;12.38;81.23;93561.00;4857056;29;20064;-76
2022/10/29 03:42:30;;;;;;;7.75;2.05;;;;;;;12.37;80.85;93557.59;4850266;29;20565;-76
2022/10/29 03:44:57;;;;;;;6.10;2.45;;;;;;;12.39;80.95;93558.09;4839551;29;20513;-77
2022/10/29 03:47:22;;;;;;;7.55;2.10;;;;;;;12.40;80.67;93553.63;4838707;29;20037;-76
2022/10/29 03:49:48;;;;;;;9.05;2.10;;;;;;;12.38;80.72;93551.28;4838548;29;20436;-76
2022/10/29 03:52:14;;;;;;;5.88;2.00;;;;;;;12.39;80.55;93550.22;4833338;29;20042;-76
2022/10/29 03:54:39;;;;;;;5.78;2.13;;;;;;;12.38;80.86;93556.53;4858274;29;20630;-76
2022/10/29 03:57:05;;;;;;;6.18;2.20;;;;;;;12.38;80.87;93555.75;4857120;29;20035;-76
2022/10/29 03:59:30;;;;;;;8.13;2.05;;;;;;;12.38;80.42;93558.38;4860006;29;20046;-77
2022/10/29 04:01:56;;;;;;;5.43;1.90;;;;;;;12.37;80.79;93564.69;4860684;29;20033;-76
2022/10/29 04:04:21;;;;;;;7.55;2.58;;;;;;;12.35;80.77;93562.31;4859870;29;20048;-76
2022/10/29 04:06:47;;;;;;;8.98;2.22;;;;;;;12.36;80.65;93560.47;4861462;29;20050;-76
2022/10/29 04:09:12;;;;;;;8.77;2.42;;;;;;;12.35;80.36;93562.31;4860256;29;20045;-76
2022/10/29 04:11:38;;;;;;;6.47;2.22;;;;;;;12.37;79.88;93559.44;4855193;29;20030;-76
2022/10/29 04:14:03;;;;;;;6.35;2.20;;;;;;;12.36;79.67;93558.66;4857996;29;20046;-76
2022/10/29 04:16:29;;;;;;;9.75;2.47;;;;;;;12.35;79.72;93557.06;4861339;29;20053;-76
2022/10/29 04:18:54;;;;;;;4.28;2.13;;;;;;;12.36;79.87;93557.84;4861112;29;20420;-76
2022/10/29 04:21:20;;;;;;;5.95;2.25;;;;;;;12.35;79.71;93558.91;4861254;29;20614;-76
2022/10/29 04:23:47;;;;;;;7.57;2.75;;;;;;;12.32;79.39;93559.47;4828569;29;20041;-76
2022/10/29 04:26:13;;;;;;;9.23;2.40;;;;;;;12.33;79.20;93566.28;4859978;29;20508;-76
2022/10/29 04:28:38;;;;;;;6.03;2.03;;;;;;;12.31;79.34;93557.88;4859757;29;20044;-76
2022/10/29 04:31:05;;;;;;;8.93;2.00;;;;;;;12.29;79.32;93556.31;4836343;29;20193;-76
2022/10/29 04:33:31;;;;;;;8.88;2.55;;;;;;;12.29;79.29;93555.53;4850052;29;20045;-77
2022/10/29 04:35:56;;;;;;;9.45;2.00;;;;;;;12.28;79.16;93557.38;4860487;29;20038;-78
2022/10/29 04:38:22;;;;;;;8.60;2.30;;;;;;;12.27;79.13;93552.38;4846692;29;20493;-77
2022/10/29 04:40:48;;;;;;;6.20;2.20;;;;;;;12.26;79.24;93553.44;4847146;29;20044;-77
2022/10/29 04:43:14;;;;;;;7.07;2.45;;;;;;;12.25;79.44;93555.28;4863003;29;20033;-77
2022/10/29 04:45:40;;;;;;;8.82;2.10;;;;;;;12.24;79.34;93550.31;4858878;29;20136;-77
2022/10/29 04:48:06;;;;;;;12.00;2.65;;;;;;;12.24;79.14;93542.44;4860148;29;20044;-77
2022/10/29 04:50:35;;;;;;;7.85;2.20;;;;;;;12.24;79.12;93542.44;4860008;29;20512;-77
2022/10/29 04:53:03;;;;;;;6.25;2.42;;;;;;;12.23;79.32;93546.91;4861681;29;20044;-77
2022/10/29 04:55:29;;;;;;;9.43;2.15;;;;;;;12.22;79.45;93547.94;4858991;29;20033;-77
2022/10/29 04:57:55;;;;;;;8.45;2.13;;;;;;;12.23;79.38;93554.78;4860015;29;20070;-77
2022/10/29 05:00:21;;;;;;;8.68;2.42;;;;;;;12.22;79.40;93555.81;4856587;29;20045;-76
2022/10/29 05:02:51;;;;;;;7.90;2.40;;;;;;;12.20;79.47;93552.66;4842095;29;20376;-77
2022/10/29 05:05:18;;;;;;;9.02;2.20;;;;;;;12.21;79.67;93551.63;4871308;29;20065;-77
2022/10/29 05:07:44;;;;;;;9.48;2.45;;;;;;;12.21;79.51;93550.84;4841549;29;20497;-77
2022/10/29 05:10:10;;;;;;;9.80;2.20;;;;;;;12.22;79.05;93555.03;4842138;29;20038;-77
2022/10/29 05:12:35;;;;;;;12.55;2.70;;;;;;;12.20;78.94;93544.78;4842521;29;20042;-77
2022/10/29 05:15:01;;;;;;;6.57;2.45;;;;;;;12.20;79.05;93536.91;4841860;29;20081;-77
2022/10/29 05:17:27;;;;;;;6.97;2.20;;;;;;;12.21;78.81;93548.22;4842161;29;20069;-77
2022/10/29 05:19:52;;;;;;;11.20;2.25;;;;;;;12.19;78.94;93548.50;4860725;29;20407;-77
2022/10/29 05:22:18;;;;;;;9.10;1.90;;;;;;;12.17;79.08;93545.34;4859647;29;20044;-77
2022/10/29 05:24:43;;;;;;;8.13;2.17;;;;;;;12.17;79.23;93553.22;4859543;29;20136;-77
2022/10/29 05:27:09;;;;;;;9.65;2.72;;;;;;;12.16;79.78;93549.03;4858895;29;20048;-77
2022/10/29 05:29:35;;;;;;;7.95;2.42;;;;;;;12.17;80.03;93550.59;4858076;29;20042;-77
2022/10/29 05:32:00;;;;;;;9.57;2.22;;;;;;;12.14;79.74;93551.16;4843918;29;20051;-77
2022/10/29 05:34:26;;;;;;;9.20;2.20;;;;;;;12.15;79.70;93551.91;4855777;29;20314;-77
2022/10/29 05:36:51;;;;;;;7.18;2.20;;;;;;;12.16;79.63;93553.47;4840759;29;20069;-77
2022/10/29 05:39:17;;;;;;;5.43;2.03;;;;;;;12.16;79.47;93554.28;4856257;29;20501;-77
2022/10/29 05:41:42;;;;;;;7.15;2.33;;;;;;;12.17;79.50;93549.81;4855901;29;20053;-77
2022/10/29 05:44:08;;;;;;;7.43;2.25;;;;;;;12.14;79.68;93548.53;4841792;29;20124;-77
2022/10/29 05:46:34;;;;;;;8.93;1.98;;;;;;;12.14;79.47;93553.78;4841913;29;20050;-77
2022/10/29 05:48:59;;;;;;;7.38;2.15;;;;;;;12.13;79.21;93549.56;4848809;29;20061;-77
2022/10/29 05:51:25;;;;;;;5.38;1.90;;;;;;;12.14;79.02;93553.78;4859600;29;20034;-79
2022/10/29 05:53:50;;;;;;;9.57;2.22;;;;;;;12.15;78.79;93552.69;4860971;29;20046;-80
2022/10/29 05:56:16;;;;;;;8.98;2.25;;;;;;;12.15;79.04;93552.69;4855973;29;20042;-80
2022/10/29 05:58:41;;;;;;;7.55;2.42;;;;;;;12.18;78.87;93552.19;4847837;29;20066;-80
2022/10/29 06:01:09;;;;;;;5.68;2.22;;;;;;;12.20;78.60;93565.00;4862128;29;20898;-79
2022/10/29 06:03:35;;;;;;;8.75;2.30;;;;;;;12.24;78.43;93561.59;4851337;29;20544;-79
2022/10/29 06:06:00;;;;;;;6.93;2.13;;;;;;;12.27;78.22;93562.88;4850506;29;20140;-81
2022/10/29 06:08:26;;;;;;;14.45;2.40;;;;;;;12.27;78.27;93558.44;4852465;29;20073;-80
2022/10/29 06:10:52;;;;;;;10.73;2.35;;;;;;;12.31;78.21;93558.66;4855120;29;20129;-81
2022/10/29 06:13:19;;;;;;;6.32;2.28;;;;;;;12.37;78.31;93565.47;4853229;29;20042;-79
2022/10/29 06:15:46;;;;;;;5.03;2.03;;;;;;;12.52;78.59;93572.50;4857803;29;20049;-80
2022/10/29 06:18:12;;;;;;;5.97;2.03;;;;;;;12.78;78.26;93559.19;4873285;29;20045;-80
2022/10/29 06:20:38;;;;;;;10.90;2.75;;;;;;;13.09;77.84;93560.53;4849475;29;20555;-79
2022/10/29 06:23:04;;;;;;;7.20;2.10;;;;;;;13.44;77.10;93566.59;4851919;29;20042;-79
2022/10/29 06:25:30;;;;;;;9.27;2.35;;;;;;;13.81;75.96;93564.41;4855732;29;20038;-82
2022/10/29 06:28:00;;;;;;;7.82;2.53;;;;;;;14.22;75.14;93563.94;4855544;29;20101;-80
2022/10/29 06:30:27;;;;;;;5.93;2.00;;;;;;;14.65;73.63;93558.69;4860509;29;20638;-81
2022/10/29 06:32:53;;;;;;;9.32;2.30;;;;;;;15.12;71.52;93559.56;4856081;29;20030;-81
2022/10/29 06:35:18;;;;;;;5.03;1.98;;;;;;;15.60;69.30;93560.09;4858109;29;20206;-80
2022/10/29 06:37:44;;;;;;;9.25;1.90;;;;;;;16.15;68.22;93555.97;4859758;29;20082;-81
2022/10/29 06:40:10;;;;;;;9.98;2.28;;;;;;;16.63;65.20;93563.44;4861269;29;20036;-80
2022/10/29 06:42:35;;;;;;;7.35;2.30;;;;;;;17.11;63.53;93557.63;4859704;29;20049;-81
2022/10/29 06:45:02;;;;;;;7.97;2.10;;;;;;;17.66;62.66;93552.06;4860563;29;20053;-81
2022/10/29 06:47:27;;;;;;;6.68;2.00;;;;;;;18.27;60.85;93551.56;4851885;29;20552;-81
2022/10/29 06:49:53;;;;;;;9.65;2.65;;;;;;;18.87;60.50;93550.13;4844832;29;20151;-82
2022/10/29 06:52:18;;;;;;;10.68;2.13;;;;;;;19.42;56.97;93554.00;4856665;29;20033;-81
2022/10/29 06:54:44;;;;;;;11.00;2.00;;;;;;;19.90;56.09;93556.38;4859261;29;20033;-81
2022/10/29 06:57:09;;;;;;;7.53;2.30;;;;;;;20.47;53.75;93555.22;4875722;29;20045;-80
2022/10/29 06:59:35;;;;;;;8.13;1.88;;;;;;;21.05;52.36;93560.00;4857911;29;20045;-81
2022/10/29 07:02:01;;;;;;;7.05;2.00;;;;;;;21.57;51.92;93546.25;4862461;29;20040;-81
2022/10/29 07:04:27;;;;;;;7.13;2.05;;;;;;;22.06;50.27;93559.69;4865292;29;20042;-81
2022/10/29 07:06:52;;;;;;;7.22;2.50;;;;;;;22.48;49.71;93564.84;4871511;29;20053;-81
2022/10/29 07:09:18;;;;;;;7.82;2.25;;;;;;;23.15;48.68;93567.22;4854055;29;20045;-81
2022/10/29 07:11:43;;;;;;;7.10;2.30;;;;;;;23.71;46.55;93572.56;4844568;29;20041;-81
2022/10/29 07:14:09;;;;;;;8.82;2.13;;;;;;;24.07;45.37;93568.94;4846069;29;20037;-81
2022/10/29 07:16:35;;;;;;;8.48;2.10;;;;;;;24.16;43.00;93571.44;4861284;29;20124;-81
2022/10/29 07:19:03;;;;;;;6.60;1.80;;;;;;;24.51;42.77;93568.84;4861876;29;20041;-81
2022/10/29 07:21:29;;;;;;;8.77;2.10;;;;;;;24.78;42.22;93573.66;4853989;29;20054;-80
2022/10/29 07:23:54;;;;;;;7.43;1.98;;;;;;;25.05;41.74;93578.06;4845582;29;20108;-81
2022/10/29 07:26:21;;;;;;;7.60;2.20;;;;;;;25.68;41.13;93579.72;4857135;29;20030;-81
2022/10/29 07:28:47;;;;;;;11.60;2.85;;;;;;;26.17;40.75;93587.13;4862866;29;20037;-82
2022/10/29 07:31:13;;;;;;;10.35;2.80;;;;;;;26.38;40.20;93581.34;4860855;29;20037;-81
2022/10/29 07:33:38;;;;;;;8.32;2.60;;;;;;;26.11;40.57;93582.44;4865867;29;20045;-83
2022/10/29 07:36:04;;;;;;;15.23;2.70;;;;;;;26.06;41.29;93582.72;4863390;29;20500;-83
2022/10/29 07:38:30;;;;;;;8.82;2.45;;;;;;;25.58;41.97;93582.19;4833601;29;20128;-83
2022/10/29 07:40:55;;;;;;;9.27;2.20;;;;;;;25.92;41.44;93583.25;4865202;29;20405;-83
2022/10/29 07:43:22;;;;;;;13.00;2.60;;;;;;;25.89;41.22;93582.03;4866491;29;20041;-83
2022/10/29 07:45:49;;;;;;;9.35;3.20;;;;;;;25.79;41.15;93585.28;4865920;29;20469;-83
2022/10/29 07:48:15;;;;;;;9.98;3.03;;;;;;;26.09;40.46;93587.38;4864013;29;20041;-83
2022/10/29 07:50:41;;;;;;;8.75;2.13;;;;;;;25.58;41.47;93599.06;4861330;29;20037;-83
2022/10/29 07:53:07;;;;;;;10.00;2.10;;;;;;;25.38;43.20;93600.22;4866596;29;20065;-83
2022/10/29 07:55:33;;;;;;;5.07;2.05;;;;;;;25.16;43.46;93601.63;4860338;29;20534;-83
2022/10/29 07:58:02;;;;;;;8.88;2.28;;;;;;;25.79;41.84;93598.69;4865310;29;20045;-83
2022/10/29 08:00:33;;;;;;;7.82;2.75;;;;;;;25.74;43.61;93599.00;4860898;29;20033;-82
2022/10/29 08:02:59;;;;;;;7.68;2.97;;;;;;;25.79;42.36;93604.06;4865238;29;20065;-83
2022/10/29 08:05:26;;;;;;;10.77;2.63;;;;;;;25.83;43.24;93599.53;4866973;29;20452;-83
2022/10/29 08:07:55;;;;;;;7.68;2.63;;;;;;;26.30;43.09;93595.00;4865298;29;20041;-82
2022/10/29 08:10:21;;;;;;;9.65;2.30;;;;;;;26.02;40.08;93601.44;4864307;29;20062;-83
2022/10/29 08:12:52;;;;;;;14.23;2.67;;;;;;;26.13;43.29;93597.03;4850012;29;20400;-83
2022/10/29 08:15:18;;;;;;;12.82;2.70;;;;;;;25.66;43.91;93595.38;4879679;29;20026;-83
2022/10/29 08:17:43;;;;;;;9.70;2.80;;;;;;;25.13;44.62;93593.16;4864117;29;20034;-83
2022/10/29 08:20:09;;;;;;;9.75;2.60;;;;;;;25.50;42.51;93600.06;4863538;29;20042;-82
2022/10/29 08:22:35;;;;;;;9.38;2.50;;;;;;;25.35;42.93;93593.63;4868416;29;20033;-82
2022/10/29 08:25:01;;;;;;;8.85;2.53;;;;;;;25.44;44.45;93599.53;4846049;29;20041;-82
2022/10/29 08:27:26;;;;;;;6.45;2.40;;;;;;;25.51;45.84;93598.91;4853154;29;20045;-83
2022/10/29 08:29:52;;;;;;;9.55;2.47;;;;;;;24.63;46.19;93599.31;4862293;29;20693;-82
2022/10/29 08:32:17;;;;;;;9.85;2.72;;;;;;;24.57;46.86;93603.38;4864269;29;20037;-83
2022/10/29 08:34:43;;;;;;;11.32;2.65;;;;;;;25.00;47.58;93607.81;4865073;29;20038;-82
2022/10/29 08:37:08;;;;;;;9.23;2.38;;;;;;;25.41;41.69;93594.91;4865979;29;20034;-83
2022/10/29 08:39:34;;;;;;;10.43;2.92;;;;;;;25.39;46.08;93599.84;4848489;29;20052;-82
2022/10/29 08:42:34;;;;;;;11.52;2.60;;;;;;;25.00;46.02;93594.41;4877415;29;20046;-82
2022/10/29 08:45:22;;;;;;;7.53;2.45;;;;;;;24.62;47.97;93592.41;4863315;29;20037;-82
2022/10/29 08:48:06;;;;;;;12.02;2.50;;;;;;;24.30;49.64;93590.50;4861112;29;20065;-82
2022/10/29 08:50:39;;;;;;;7.72;2.40;;;;;;;24.01;45.30;93590.91;4859548;29;20412;-82
2022/10/29 08:53:16;;;;;;;9.50;2.30;;;;;;;23.74;45.62;93592.47;4862448;29;20041;-82
2022/10/29 08:55:43;;;;;;;12.52;2.70;;;;;;;23.69;45.07;93586.25;4858390;29;20062;-82
2022/10/29 08:58:59;;;;;;;11.73;2.65;;;;;;;23.62;45.54;93590.63;4861117;29;20045;-81
2022/10/29 09:01:25;;;;;;;7.72;2.47;;;;;;;23.68;47.48;93586.59;4835544;29;20058;-82
2022/10/29 09:03:50;;;;;;;13.00;2.65;;;;;;;23.52;47.84;93589.22;4863183;29;20051;-81
2022/10/29 09:06:42;;;;;;;7.95;2.08;;;;;;;23.57;47.24;93577.50;4862727;29;20033;-82
2022/10/29 09:09:11;;;;;;;5.70;2.38;;;;;;;23.22;46.55;93589.56;4861037;29;20042;-82
2022/10/29 09:12:00;;;;;;;13.50;2.70;;;;;;;23.22;46.35;93581.53;4859503;29;20668;-81
2022/10/29 09:14:27;;;;;;;9.85;2.10;;;;;;;;;;4850416;29;20045;-82
2022/10/29 09:17:17;;;;;;;12.38;2.53;;;;;;;22.81;50.19;93586.06;4856852;29;20111;-81
2022/10/29 09:20:06;;;;;;;6.05;2.33;;;;;;;23.07;49.48;93579.56;4854783;29;20021;-82
2022/10/29 09:22:46;;;;;;;9.82;2.40;;;;;;;23.26;48.16;93579.00;4870198;29;20041;-82
2022/10/29 09:25:33;;;;;;;8.23;2.10;;;;;;;23.58;47.13;93579.09;4854614;29;20077;-82
2022/10/29 09:28:11;;;;;;;6.20;2.22;;;;;;;23.62;46.64;93579.94;4858624;29;20049;-82
2022/10/29 09:31:02;;;;;;;11.25;2.38;;;;;;;23.69;46.78;93574.81;4861134;29;20033;-82
2022/10/29 09:33:29;;;;;;;9.25;2.67;;;;;;;23.31;46.53;93576.06;4845949;29;20041;-82
2022/10/29 09:35:58;;;;;;;6.38;2.05;;;;;;;23.37;45.85;93574.72;4866458;29;20551;-82
2022/10/29 09:38:39;;;;;;;10.48;2.80;;;;;;;23.19;46.91;93565.41;4872494;29;20109;-82
2022/10/29 09:41:09;;;;;;;7.13;2.30;;;;;;;23.39;47.93;93572.47;4860653;29;20072;-82
2022/10/29 09:43:43;;;;;;;9.38;2.70;;;;;;;23.38;48.28;93567.47;4845823;29;20037;-82
2022/10/29 09:46:22;;;;;;;9.18;2.13;;;;;;;23.19;46.85;93573.41;4852350;29;20101;-82
2022/10/29 09:49:03;;;;;;;7.10;2.30;;;;;;;23.28;50.34;93566.84;4856648;29;20048;-82
2022/10/29 09:51:50;;;;;;;12.05;2.75;;;;;;;23.47;49.67;93563.53;4853628;29;20077;-82
2022/10/29 09:54:15;;;;;;;8.45;2.50;;;;;;;23.32;49.56;93566.16;4847666;29;20044;-82
2022/10/29 09:56:44;;;;;;;10.88;2.25;;;;;;;22.65;49.78;93575.28;4866164;29;20033;-81
2022/10/29 09:59:25;;;;;;;11.18;2.50;;;;;;;22.51;50.84;93568.72;4855105;29;20097;-82
2022/10/29 10:01:50;;;;;;;13.35;2.58;;;;;;;22.20;50.30;93573.50;4846792;29;20504;-82
2022/10/29 10:04:26;;;;;;;8.43;2.50;;;;;;;22.07;49.03;93574.59;4862841;29;20048;-82
2022/10/29 10:07:07;;;;;;;7.88;2.20;;;;;;;22.43;50.60;93575.75;4854877;29;20101;-82
2022/10/29 10:09:56;;;;;;;10.48;2.83;;;;;;;22.34;48.88;93577.75;4862707;29;20531;-82
2022/10/29 10:12:28;;;;;;;10.02;2.38;;;;;;;22.56;48.28;93569.31;4845116;29;20105;-81
2022/10/29 10:15:19;;;;;;;9.20;2.50;;;;;;;22.78;48.98;93575.25;4855236;29;20404;-81
2022/10/29 10:17:55;;;;;;;7.10;2.17;;;;;;;22.62;47.12;93570.59;4848966;29;20050;-80
2022/10/29 10:20:39;;;;;;;10.50;2.50;;;;;;;22.55;47.94;93567.72;4855523;29;20041;-81
2022/10/29 10:23:40;;;;;;;9.32;2.53;;;;;;;22.53;49.60;93569.94;4847785;29;20060;-82
2022/10/29 10:26:31;;;;;;;10.23;2.72;;;;;;;22.48;50.01;93559.50;4868064;29;20034;-82
2022/10/29 10:29:18;;;;;;;6.93;2.35;;;;;;;22.61;48.49;93562.97;4845096;29;20050;-82
2022/10/29 10:31:47;;;;;;;8.15;2.30;;;;;;;22.66;49.55;93563.50;4858658;29;20026;-82
2022/10/29 10:34:19;;;;;;;10.68;3.10;;;;;;;22.74;49.71;93556.50;4858867;29;20089;-82
2022/10/29 10:36:54;;;;;;;10.73;2.28;;;;;;;22.84;48.39;93558.69;4859778;29;20037;-81
2022/10/29 10:39:20;;;;;;;6.97;2.40;;;;;;;23.03;51.31;93549.31;4844501;29;20065;-82
2022/10/29 10:41:49;;;;;;;9.95;2.65;;;;;;;23.00;47.10;93545.44;4857675;29;20396;-81
2022/10/29 10:44:14;;;;;;;10.30;2.28;;;;;;;23.23;45.88;93548.38;4861998;29;20630;-82
2022/10/29 10:46:42;;;;;;;11.05;2.90;;;;;;;23.47;48.41;93536.81;4853843;29;20076;-82
2022/10/29 10:49:10;;;;;;;6.60;2.58;;;;;;;23.55;46.24;93542.34;4841298;29;20477;-82
2022/10/29 10:51:39;;;;;;;8.27;2.70;;;;;;;23.15;49.19;93540.53;4864214;29;20038;-82
2022/10/29 10:54:28;;;;;;;10.00;2.40;;;;;;;23.13;48.49;93538.19;4859819;29;20120;-82
2022/10/29 10:56:59;;;;;;;7.70;2.35;;;;;;;23.43;49.70;93540.50;4851544;29;20400;-82
2022/10/29 10:59:50;;;;;;;7.32;2.72;;;;;;;23.36;47.28;93534.97;4858575;29;20445;-82
2022/10/29 11:02:36;;;;;;;9.60;2.45;;;;;;;23.31;48.34;93529.88;4849265;29;20046;-81
2022/10/29 11:05:19;;;;;;;9.30;2.70;;;;;;;23.16;50.19;93529.47;4843505;29;20103;-82
2022/10/29 11:08:07;;;;;;;6.55;2.40;;;;;;;22.85;49.47;93522.88;4860021;29;20119;-82
2022/10/29 11:10:45;;;;;;;11.52;2.80;;;;;;;22.93;47.28;93523.84;4847484;29;20501;-81
2022/10/29 11:13:20;;;;;;;10.05;2.70;;;;;;;23.06;48.60;93520.06;4854203;29;20075;-81
2022/10/29 11:16:14;;;;;;;7.78;2.67;;;;;;;23.19;48.51;93515.47;4854259;29;20465;-81
2022/10/29 11:19:03;;;;;;;11.38;2.50;;;;;;;23.05;49.18;93510.47;4851663;29;20037;-80
2022/10/29 11:21:51;;;;;;;14.35;2.83;;;;;;;23.26;49.85;93509.53;4851002;29;20136;-81
2022/10/29 11:24:34;;;;;;;6.55;2.55;;;;;;;23.34;50.05;93508.59;4859992;29;20037;-81
2022/10/29 11:27:18;;;;;;;9.73;2.90;;;;;;;22.89;51.92;93504.28;4855462;29;20041;-80
2022/10/29 11:30:02;;;;;;;7.93;2.83;;;;;;;23.05;48.71;93499.03;4866607;29;20033;-81
2022/10/29 11:32:49;;;;;;;7.38;2.50;;;;;;;22.96;49.93;93496.47;4855457;29;20129;-83
2022/10/29 11:35:35;;;;;;;6.53;2.58;;;;;;;23.04;52.00;93495.59;4851687;29;20084;-82
2022/10/29 11:38:08;;;;;;;7.65;2.50;;;;;;;23.06;52.34;93490.69;4854824;29;20556;-81
2022/10/29 11:40:34;;;;;;;10.18;2.70;;;;;;;22.99;51.87;93485.16;4860880;29;20037;-83
2022/10/29 11:43:02;;;;;;;7.78;2.47;;;;;;;22.87;51.17;93487.81;4866540;29;20033;-83
2022/10/29 11:45:52;;;;;;;6.57;2.30;;;;;;;23.13;53.41;93489.34;4858383;29;20448;-83
2022/10/29 11:48:28;;;;;;;8.05;2.53;;;;;;;23.10;53.56;93484.66;4854754;29;20038;-82